Time;durP1;ratioP1;P1;durP2;ratioP2;P2;SDS_P1;SDS_P2;PMS_P1;PMS_P2;Temp;Humidity;BMP_temperature;BMP_pressure;BME280_temperature;BME280_humidity;BME280_pressure;Samples;Min_cycle;Max_cycle;Signal;HPM_P1;HPM_P2
2022/01/19 00:00:59;;;;;;;;;;;;;;;;;;5027289;28;19969;-75
2022/01/19 00:03:26;;;;;;;;;;;;;;;;;;5021233;28;19963;-75
2022/01/19 00:05:52;;;;;;;;;;;;;;;;;;5024785;28;19997;-75
2022/01/19 00:08:20;;;;;;;;;;;;;;;;;;5025175;28;20365;-75
2022/01/19 00:10:46;;;;;;;;;;;;;;;;;;5024239;28;20024;-76
2022/01/19 00:13:13;;;;;;;;;;;;;;;;;;5023049;28;20401;-77
2022/01/19 00:15:39;;;;;;;;;;;;;;;;;;5028297;28;19945;-75
2022/01/19 00:18:05;;;;;;;;;;;;;;;;;;5019097;28;20406;-75
2022/01/19 00:20:31;;;;;;;;;;;;;;;;;;5009533;28;19955;-74
2022/01/19 00:22:57;;;;;;;;;;;;;;;;;;5018651;28;19953;-74
2022/01/19 00:25:24;;;;;;;;;;;;;;;;;;5005303;28;20042;-75
2022/01/19 00:27:50;;;;;;;;;;;;;;;;;;5014915;28;19980;-76
2022/01/19 00:30:16;;;;;;;;;;;;;;;;;;5019519;28;20342;-75
2022/01/19 00:32:42;;;;;;;;;;;;;;;;;;5056560;28;19917;-75
2022/01/19 00:35:09;;;;;;;;;;;;;;;;;;5027977;28;19949;-75
2022/01/19 00:37:35;;;;;;;;;;;;;;;;;;5020209;28;19964;-75
2022/01/19 00:40:01;;;;;;;;;;;;;;;;;;5025289;28;20427;-75
2022/01/19 00:42:27;;;;;;;;;;;;;;;;;;5021363;28;19959;-74
2022/01/19 00:44:53;;;;;;;;;;;;;;;;;;5026048;28;19971;-75
2022/01/19 00:47:20;;;;;;;;;;;;;;;;;;5023515;28;19964;-75
2022/01/19 00:49:46;;;;;;;;;;;;;;;;;;5024105;28;19963;-75
2022/01/19 00:52:12;;;;;;;;;;;;;;;;;;5022696;28;19961;-75
2022/01/19 00:54:38;;;;;;;;;;;;;;;;;;5020615;28;19975;-76
2022/01/19 00:57:04;;;;;;;;;;;;;;;;;;5025798;28;19968;-76
2022/01/19 00:59:31;;;;;;;;;;;;;;;;;;5025586;28;19960;-75
2022/01/19 01:01:57;;;;;;;;;;;;;;;;;;5024005;28;19952;-75
2022/01/19 01:04:23;;;;;;;;;;;;;;;;;;5022927;28;19943;-75
2022/01/19 01:06:49;;;;;;;;;;;;;;;;;;5024157;28;20031;-75
2022/01/19 01:09:15;;;;;;;;;;;;;;;;;;5022902;28;19983;-76
2022/01/19 01:11:58;;;;;;;;;;;;;;;;;;5029856;28;19971;-75
2022/01/19 01:19:54;;;;;;;;;;;;;;;;;;5023467;28;21273;-75
2022/01/19 01:22:20;;;;;;;;;;;;;;;;;;5020936;28;19940;-75
2022/01/19 01:24:46;;;;;;;;;;;;;;;;;;5025822;28;19964;-76
2022/01/19 01:27:13;;;;;;;;;;;;;;;;;;5020736;28;19956;-76
2022/01/19 01:29:40;;;;;;;;;;;;;;;;;;5026042;28;19963;-75
2022/01/19 01:32:07;;;;;;;;;;;;;;;;;;5024560;28;20314;-75
2022/01/19 01:34:33;;;;;;;;;;;;;;;;;;5026162;28;19952;-77
2022/01/19 01:36:59;;;;;;;;;;;;;;;;;;5023323;28;19960;-76
2022/01/19 01:39:25;;;;;;;;;;;;;;;;;;5020052;28;19964;-77
2022/01/19 01:41:51;;;;;;;;;;;;;;;;;;5020973;28;19961;-76
2022/01/19 01:44:18;;;;;;;;;;;;;;;;;;5024184;28;19955;-76
2022/01/19 01:46:48;;;;;;;;;;;;;;;;;;5023330;28;19952;-75
2022/01/19 01:49:28;;;;;;;;;;;;;;;;;;5022760;28;19984;-75
2022/01/19 01:54:38;;;;;;;;;;;;;;;;;;5019102;28;20987;-75
2022/01/19 01:57:05;;;;;;;;;;;;;;;;;;5024659;28;19953;-74
2022/01/19 01:59:31;;;;;;;;;;;;;;;;;;5023118;28;19975;-75
2022/01/19 02:01:57;;;;;;;;;;;;;;;;;;5010999;28;20356;-75
2022/01/19 02:04:25;;;;;;;;;;;;;;;;;;5016945;28;19956;-74
2022/01/19 02:09:36;;;;;;;;;;;;;;;;;;5022295;28;20522;-75
2022/01/19 02:23:16;;;;;;;;;;;;;;;;;;5024325;28;19956;-74
2022/01/19 02:25:44;;;;;;;;;;;;;;;;;;5020716;28;20505;-74
2022/01/19 02:41:38;;;;;;;;;;;;;;;;;;4996252;28;19980;-75
2022/01/19 02:44:04;;;;;;;;;;;;;;;;;;5021334;28;19953;-75
2022/01/19 02:46:51;;;;;;;;;;;;;;;;;;5036991;28;20026;-75
2022/01/19 02:49:18;;;;;;;;;;;;;;;;;;5020428;28;20010;-78
2022/01/19 02:51:44;;;;;;;;;;;;;;;;;;5027866;28;20032;-79
2022/01/19 02:54:10;;;;;;;;;;;;;;;;;;5030936;28;20001;-78
2022/01/19 02:56:39;;;;;;;;;;;;;;;;;;5006655;28;21317;-78
2022/01/19 03:10:21;;;;;;;;;;;;;;;;;;5007597;28;19953;-77
2022/01/19 03:12:47;;;;;;;;;;;;;;;;;;5004402;28;19960;-77
2022/01/19 03:15:14;;;;;;;;;;;;;;;;;;5007109;28;20447;-76
2022/01/19 03:17:40;;;;;;;;;;;;;;;;;;5025001;28;19959;-77
2022/01/19 03:20:06;;;;;;;;;;;;;;;;;;5029591;28;19959;-77
2022/01/19 03:25:17;;;;;;;;;;;;;;;;;;5020812;28;19953;-76
2022/01/19 03:27:46;;;;;;;;;;;;;;;;;;5026743;28;19989;-76
2022/01/19 03:30:12;;;;;;;;;;;;;;;;;;5024385;28;19961;-75
2022/01/19 03:32:38;;;;;;;;;;;;;;;;;;5026972;28;20031;-77
2022/01/19 03:35:04;;;;;;;;;;;;;;;;;;5028347;28;19983;-77
2022/01/19 03:37:31;;;;;;;;;;;;;;;;;;5024617;28;19921;-77
2022/01/19 03:39:57;;;;;;;;;;;;;;;;;;5025695;28;20479;-76
2022/01/19 03:42:23;;;;;;;;;;;;;;;;;;5026700;28;19949;-77
2022/01/19 03:44:49;;;;;;;;;;;;;;;;;;5024859;28;19960;-77
2022/01/19 03:47:17;;;;;;;;;;;;;;;;;;5013886;28;20694;-77
2022/01/19 03:49:43;;;;;;;;;;;;;;;;;;5029040;28;20018;-81
2022/01/19 03:52:09;;;;;;;;;;;;;;;;;;5015869;28;19955;-81
2022/01/19 03:54:36;;;;;;;;;;;;;;;;;;5005647;28;20391;-81
2022/01/19 03:57:02;;;;;;;;;;;;;;;;;;5002178;28;20339;-81
2022/01/19 03:59:28;;;;;;;;;;;;;;;;;;5021515;28;19921;-81
2022/01/19 04:01:56;;;;;;;;;;;;;;;;;;5012608;28;19917;-81
2022/01/19 04:04:40;;;;;;;;;;;;;;;;;;5009389;28;19912;-81
2022/01/19 04:09:33;;;;;;;;;;;;;;;;;;5024256;28;19960;-82
2022/01/19 04:11:59;;;;;;;;;;;;;;;;;;5007012;28;19957;-82
2022/01/19 04:14:25;;;;;;;;;;;;;;;;;;5027869;28;19967;-81
2022/01/19 04:16:52;;;;;;;;;;;;;;;;;;5031516;28;19959;-82
2022/01/19 04:19:28;;;;;;;;;;;;;;;;;;5031617;28;20296;-84
2022/01/19 04:21:55;;;;;;;;;;;;;;;;;;5023692;28;20447;-81
2022/01/19 04:24:21;;;;;;;;;;;;;;;;;;5026534;28;20006;-79
2022/01/19 04:26:58;;;;;;;;;;;;;;;;;;5027668;28;19957;-81
2022/01/19 04:29:24;;;;;;;;;;;;;;;;;;5025601;28;19969;-82
2022/01/19 04:31:50;;;;;;;;;;;;;;;;;;5054709;28;19952;-80
2022/01/19 04:34:18;;;;;;;;;;;;;;;;;;5022914;28;20030;-80
2022/01/19 04:44:51;;;;;;;;;;;;;;;;;;5017260;28;19961;-82
2022/01/19 05:04:34;;;;;;;;;;;;;;;;;;5016838;28;19925;-81
2022/01/19 05:06:41;;;;;;;;;;;;;;;;;;5014748;28;22451;-80
2022/01/19 05:09:23;;;;;;;;;;;;;;;;;;5023537;28;20397;-81
2022/01/19 05:14:34;;;;;;;;;;;;;;;;;;5017563;28;19956;-82
2022/01/19 05:17:00;;;;;;;;;;;;;;;;;;5022000;28;19964;-81
2022/01/19 05:19:26;;;;;;;;;;;;;;;;;;4997462;28;19976;-83
2022/01/19 05:21:53;;;;;;;;;;;;;;;;;;5005693;28;19945;-80
2022/01/19 05:24:19;;;;;;;;;;;;;;;;;;5001164;28;20006;-81
2022/01/19 05:26:46;;;;;;;;;;;;;;;;;;5039895;28;19964;-81
2022/01/19 05:29:12;;;;;;;;;;;;;;;;;;5001281;28;19968;-80
2022/01/19 05:31:38;;;;;;;;;;;;;;;;;;5005151;28;19968;-80
2022/01/19 05:34:04;;;;;;;;;;;;;;;;;;5005134;28;19941;-80
2022/01/19 05:36:31;;;;;;;;;;;;;;;;;;5003441;28;20588;-81
2022/01/19 05:38:57;;;;;;;;;;;;;;;;;;5009460;28;19945;-81
2022/01/19 05:41:23;;;;;;;;;;;;;;;;;;5011799;28;19961;-82
2022/01/19 05:43:49;;;;;;;;;;;;;;;;;;5024823;28;19973;-81
2022/01/19 05:46:16;;;;;;;;;;;;;;;;;;5023402;28;19952;-79
2022/01/19 05:48:42;;;;;;;;;;;;;;;;;;5055544;28;19932;-81
2022/01/19 05:51:08;;;;;;;;;;;;;;;;;;5021887;28;19952;-81
2022/01/19 05:53:34;;;;;;;;;;;;;;;;;;5021611;28;19956;-81
2022/01/19 05:56:01;;;;;;;;;;;;;;;;;;5024088;28;19990;-92
2022/01/19 05:58:27;;;;;;;;;;;;;;;;;;5021097;28;20381;-81
2022/01/19 06:00:53;;;;;;;;;;;;;;;;;;5024057;28;20373;-81
2022/01/19 06:03:22;;;;;;;;;;;;;;;;;;5003234;28;20404;-81
2022/01/19 06:05:48;;;;;;;;;;;;;;;;;;5016026;28;19957;-79
2022/01/19 06:09:00;;;;;;;;;;;;;;;;;;5009990;28;19964;-79
2022/01/19 06:11:03;;;;;;;;;;;;;;;;;;4994640;28;19957;-81
2022/01/19 06:13:29;;;;;;;;;;;;;;;;;;5007178;28;19957;-79
2022/01/19 06:15:56;;;;;;;;;;;;;;;;;;5002329;28;19957;-79
2022/01/19 06:18:22;;;;;;;;;;;;;;;;;;5001159;28;19961;-80
2022/01/19 06:20:48;;;;;;;;;;;;;;;;;;5009571;28;20312;-80
2022/01/19 06:23:14;;;;;;;;;;;;;;;;;;5011739;28;20375;-80
2022/01/19 06:25:41;;;;;;;;;;;;;;;;;;4997631;28;19957;-80
2022/01/19 06:28:07;;;;;;;;;;;;;;;;;;5002888;28;20404;-81
2022/01/19 06:30:33;;;;;;;;;;;;;;;;;;4997405;28;19937;-81
2022/01/19 06:32:59;;;;;;;;;;;;;;;;;;5013025;28;20408;-81
2022/01/19 06:35:25;;;;;;;;;;;;;;;;;;5022496;28;19956;-81
2022/01/19 06:37:52;;;;;;;;;;;;;;;;;;5026995;28;19948;-78
2022/01/19 06:40:18;;;;;;;;;;;;;;;;;;5035602;28;19967;-79
2022/01/19 06:42:45;;;;;;;;;;;;;;;;;;5017851;28;19964;-79
2022/01/19 06:45:11;;;;;;;;;;;;;;;;;;5025998;28;20378;-79
2022/01/19 06:47:37;;;;;;;;;;;;;;;;;;5004449;28;20833;-79
2022/01/19 06:50:03;;;;;;;;;;;;;;;;;;4997089;28;19976;-79
2022/01/19 06:52:30;;;;;;;;;;;;;;;;;;5002372;28;19968;-78
2022/01/19 06:54:56;;;;;;;;;;;;;;;;;;5009886;28;19976;-77
2022/01/19 06:57:22;;;;;;;;;;;;;;;;;;5017348;28;19971;-78
2022/01/19 06:59:51;;;;;;;;;;;;;;;;;;5005073;28;19969;-79
2022/01/19 07:02:17;;;;;;;;;;;;;;;;;;4997817;28;19976;-79
2022/01/19 07:04:48;;;;;;;;;;;;;;;;;;5004426;28;20022;-78
2022/01/19 07:07:14;;;;;;;;;;;;;;;;;;5003102;28;20023;-78
2022/01/19 07:09:41;;;;;;;;;;;;;;;;;;5017646;28;19964;-78
2022/01/19 07:12:07;;;;;;;;;;;;;;;;;;5000624;28;19957;-78
2022/01/19 07:14:33;;;;;;;;;;;;;;;;;;5001162;28;19918;-79
2022/01/19 07:16:59;;;;;;;;;;;;;;;;;;5004834;28;19965;-78
2022/01/19 07:19:25;;;;;;;;;;;;;;;;;;5007537;28;19956;-78
2022/01/19 07:21:52;;;;;;;;;;;;;;;;;;5004144;28;20374;-80
2022/01/19 07:24:18;;;;;;;;;;;;;;;;;;5007611;28;19963;-79
2022/01/19 07:26:44;;;;;;;;;;;;;;;;;;5017624;28;20605;-79
2022/01/19 07:29:10;;;;;;;;;;;;;;;;;;5025046;28;19995;-79
2022/01/19 07:31:36;;;;;;;;;;;;;;;;;;5018996;28;20810;-79
2022/01/19 07:34:02;;;;;;;;;;;;;;;;;;5020859;28;19986;-79
2022/01/19 07:36:29;;;;;;;;;;;;;;;;;;5017665;28;19984;-80
2022/01/19 07:38:55;;;;;;;;;;;;;;;;;;5021703;28;19999;-80
2022/01/19 07:41:22;;;;;;;;;;;;;;;;;;5024319;28;19959;-79
2022/01/19 07:43:48;;;;;;;;;;;;;;;;;;5023552;28;20479;-78
2022/01/19 07:46:15;;;;;;;;;;;;;;;;;;5025936;28;19960;-78
2022/01/19 07:48:41;;;;;;;;;;;;;;;;;;5031903;28;20384;-78
2022/01/19 07:51:07;;;;;;;;;;;;;;;;;;5025034;28;19956;-79
2022/01/19 07:53:33;;;;;;;;;;;;;;;;;;5024343;28;20342;-79
2022/01/19 07:55:59;;;;;;;;;;;;;;;;;;5020698;28;20462;-79
2022/01/19 07:58:26;;;;;;;;;;;;;;;;;;5023587;28;19964;-79
2022/01/19 08:00:52;;;;;;;;;;;;;;;;;;5027458;28;19960;-80
2022/01/19 08:03:18;;;;;;;;;;;;;;;;;;5025698;28;19972;-79
2022/01/19 08:05:44;;;;;;;;;;;;;;;;;;5024662;28;19952;-78
2022/01/19 08:08:10;;;;;;;;;;;;;;;;;;5015846;28;19964;-79
2022/01/19 08:10:36;;;;;;;;;;;;;;;;;;5024471;28;19952;-79
2022/01/19 08:13:04;;;;;;;;;;;;;;;;;;5025224;28;20019;-79
2022/01/19 08:15:31;;;;;;;;;;;;;;;;;;5017988;28;21274;-79
2022/01/19 08:17:57;;;;;;;;;;;;;;;;;;5025250;28;19989;-79
2022/01/19 08:20:23;;;;;;;;;;;;;;;;;;5022585;28;19948;-79
2022/01/19 08:22:49;;;;;;;;;;;;;;;;;;5026148;28;20373;-78
2022/01/19 08:25:15;;;;;;;;;;;;;;;;;;5022279;28;19945;-80
2022/01/19 08:27:42;;;;;;;;;;;;;;;;;;5011599;28;19941;-79
2022/01/19 08:30:08;;;;;;;;;;;;;;;;;;5003182;28;19988;-79
2022/01/19 08:32:35;;;;;;;;;;;;;;;;;;5006434;28;19956;-79
2022/01/19 08:35:01;;;;;;;;;;;;;;;;;;5006198;28;19965;-79
2022/01/19 08:37:28;;;;;;;;;;;;;;;;;;5004420;28;19968;-79
2022/01/19 08:39:54;;;;;;;;;;;;;;;;;;5003274;28;19969;-79
2022/01/19 08:42:20;;;;;;;;;;;;;;;;;;5003590;28;19965;-79
2022/01/19 08:44:46;;;;;;;;;;;;;;;;;;5006153;28;19952;-79
2022/01/19 08:47:12;;;;;;;;;;;;;;;;;;5013459;28;19971;-79
2022/01/19 08:49:39;;;;;;;;;;;;;;;;;;4995063;28;19967;-79
2022/01/19 08:52:05;;;;;;;;;;;;;;;;;;5026448;28;19952;-79
2022/01/19 08:54:31;;;;;;;;;;;;;;;;;;5035837;28;19964;-79
2022/01/19 08:56:57;;;;;;;;;;;;;;;;;;5031386;28;19973;-79
2022/01/19 08:59:23;;;;;;;;;;;;;;;;;;5024687;28;19952;-79
2022/01/19 09:01:50;;;;;;;;;;;;;;;;;;5025168;28;19947;-79
2022/01/19 09:04:16;;;;;;;;;;;;;;;;;;5021449;28;20350;-78
2022/01/19 09:06:43;;;;;;;;;;;;;;;;;;5025197;28;19949;-79
2022/01/19 09:09:09;;;;;;;;;;;;;;;;;;5031889;28;19998;-79
2022/01/19 09:35:07;;;;;;;;;;;;;;;;;;5947186;22;19925;-90
2022/01/19 09:43:07;;;;;;;;;;;;;;;;;;5502558;23;19937;-81
2022/01/19 09:45:34;;;;;;;;;;;;;;;;;;4979862;28;19937;-79
2022/01/19 09:48:00;;;;;;;;;;;;;;;;;;4964744;28;19946;-80
2022/01/19 09:50:26;;;;;;;;;;;;;;;;;;4984454;28;19957;-79
2022/01/19 09:52:52;;;;;;;;;;;;;;;;;;4982347;28;20040;-79
2022/01/19 09:55:19;;;;;;;;;;;;;;;;;;4978948;28;19961;-79
2022/01/19 09:57:45;;;;;;;;;;;;;;;;;;4988122;28;20305;-80
2022/01/19 10:00:11;;;;;;;;;;;;;;;;;;4988377;28;19957;-79
2022/01/19 10:02:37;;;;;;;;;;;;;;;;;;4975759;28;19954;-80
2022/01/19 10:05:03;;;;;;;;;;;;;;;;;;4981850;28;19945;-80
2022/01/19 10:07:32;;;;;;;;;;;;;;;;;;4984037;28;19918;-80
2022/01/19 10:09:59;;;;;;;;;;;;;;;;;;4993819;28;20023;-80
2022/01/19 10:17:57;;;;;;;;;;;;;;;;;;4980149;28;20310;-79
2022/01/19 10:20:23;;;;;;;;;;;;;;;;;;4980050;28;19949;-79
2022/01/19 10:22:50;;;;;;;;;;;;;;;;;;4982994;28;20381;-80
2022/01/19 10:25:17;;;;;;;;;;;;;;;;;;4957778;28;19972;-80
2022/01/19 10:27:46;;;;;;;;;;;;;;;;;;4985861;28;19948;-80
2022/01/19 10:30:12;;;;;;;;;;;;;;;;;;4976409;28;19973;-80
2022/01/19 10:32:40;;;;;;;;;;;;;;;;;;4980245;28;20440;-80
2022/01/19 10:35:07;;;;;;;;;;;;;;;;;;4983958;28;20447;-80
2022/01/19 10:37:33;;;;;;;;;;;;;;;;;;4982610;28;19925;-80
2022/01/19 10:40:00;;;;;;;;;;;;;;;;;;4983057;28;19926;-80
2022/01/19 10:42:29;;;;;;;;;;;;;;;;;;4971266;28;19953;-79
2022/01/19 10:44:56;;;;;;;;;;;;;;;;;;4982338;28;20503;-80
2022/01/19 10:47:22;;;;;;;;;;;;;;;;;;4984868;28;20624;-89
2022/01/19 10:49:48;;;;;;;;;;;;;;;;;;4960113;28;19933;-88
2022/01/19 10:52:14;;;;;;;;;;;;;;;;;;4966906;28;20036;-89
2022/01/19 10:54:43;;;;;;;;;;;;;;;;;;4950230;28;19968;-88
2022/01/19 10:57:09;;;;;;;;;;;;;;;;;;4957834;28;19952;-88
2022/01/19 10:59:36;;;;;;;;;;;;;;;;;;4950214;28;20027;-88
2022/01/19 11:02:02;;;;;;;;;;;;;;;;;;4965534;28;19937;-88
2022/01/19 11:04:31;;;;;;;;;;;;;;;;;;4983432;28;20355;-89
2022/01/19 11:06:57;;;;;;;;;;;;;;;;;;4975478;28;19918;-88
2022/01/19 11:09:25;;;;;;;;;;;;;;;;;;4951673;28;20012;-88
2022/01/19 11:11:52;;;;;;;;;;;;;;;;;;4982083;28;19953;-88
2022/01/19 11:14:18;;;;;;;;;;;;;;;;;;4968182;28;19972;-88
2022/01/19 11:16:44;;;;;;;;;;;;;;;;;;4984588;28;19922;-90
2022/01/19 11:19:12;;;;;;;;;;;;;;;;;;4960573;28;20400;-89
2022/01/19 11:27:32;;;;;;;;;;;;;;;;;;4986920;28;19961;-91
2022/01/19 11:30:00;;;;;;;;;;;;;;;;;;4970523;28;19957;-88
2022/01/19 11:32:26;;;;;;;;;;;;;;;;;;4964483;28;20474;-86
2022/01/19 11:34:54;;;;;;;;;;;;;;;;;;4966458;28;19914;-88
2022/01/19 11:37:23;;;;;;;;;;;;;;;;;;4963255;28;19918;-88
2022/01/19 11:39:50;;;;;;;;;;;;;;;;;;4965511;28;19950;-88
2022/01/19 11:42:16;;;;;;;;;;;;;;;;;;4965381;28;20488;-86
2022/01/19 11:44:42;;;;;;;;;;;;;;;;;;4962154;28;20636;-89
2022/01/19 11:47:08;;;;;;;;;;;;;;;;;;4964599;28;19930;-88
2022/01/19 11:49:34;;;;;;;;;;;;;;;;;;4967951;28;19973;-89
2022/01/19 11:52:01;;;;;;;;;;;;;;;;;;4983750;28;19954;-89
2022/01/19 11:54:27;;;;;;;;;;;;;;;;;;4963022;28;20545;-88
2022/01/19 11:56:53;;;;;;;;;;;;;;;;;;4971127;28;19918;-89
2022/01/19 11:59:21;;;;;;;;;;;;;;;;;;4983608;28;19965;-89
2022/01/19 12:01:47;;;;;;;;;;;;;;;;;;4948920;28;19957;-88
2022/01/19 12:04:13;;;;;;;;;;;;;;;;;;4982496;28;19953;-84
2022/01/19 12:06:42;;;;;;;;;;;;;;;;;;4960160;28;19988;-85
2022/01/19 12:09:09;;;;;;;;;;;;;;;;;;4988536;28;19957;-88
2022/01/19 12:11:37;;;;;;;;;;;;;;;;;;4959244;28;19930;-88
2022/01/19 12:19:07;;;;;;;;;;;;;;;;;;4979275;28;19917;-88
2022/01/19 12:21:34;;;;;;;;;;;;;;;;;;4967666;28;20004;-87
2022/01/19 12:24:01;;;;;;;;;;;;;;;;;;4984069;28;19946;-88
2022/01/19 12:26:28;;;;;;;;;;;;;;;;;;4974861;28;19918;-87
2022/01/19 12:28:54;;;;;;;;;;;;;;;;;;4976845;28;19926;-87
2022/01/19 12:31:20;;;;;;;;;;;;;;;;;;4969995;28;19949;-88
2022/01/19 12:33:46;;;;;;;;;;;;;;;;;;4967523;28;19918;-89
2022/01/19 12:36:13;;;;;;;;;;;;;;;;;;5000416;28;19918;-88
2022/01/19 12:38:39;;;;;;;;;;;;;;;;;;4978814;28;19981;-88
2022/01/19 12:41:07;;;;;;;;;;;;;;;;;;4978428;28;19922;-87
2022/01/19 12:43:34;;;;;;;;;;;;;;;;;;4956739;28;19933;-88
2022/01/19 12:46:00;;;;;;;;;;;;;;;;;;4987263;28;19929;-89
2022/01/19 12:48:26;;;;;;;;;;;;;;;;;;4979823;28;19922;-89
2022/01/19 12:50:54;;;;;;;;;;;;;;;;;;4979131;28;20354;-88
2022/01/19 12:53:20;;;;;;;;;;;;;;;;;;4986418;28;20003;-87
2022/01/19 12:55:49;;;;;;;;;;;;;;;;;;4968042;28;20381;-87
2022/01/19 12:58:16;;;;;;;;;;;;;;;;;;4973118;28;19976;-87
2022/01/19 13:00:42;;;;;;;;;;;;;;;;;;4971676;28;19918;-89
2022/01/19 13:03:08;;;;;;;;;;;;;;;;;;4992507;28;19921;-89
2022/01/19 13:05:34;;;;;;;;;;;;;;;;;;4984020;28;19961;-90
2022/01/19 13:08:03;;;;;;;;;;;;;;;;;;4984830;28;20085;-90
2022/01/19 13:12:58;;;;;;;;;;;;;;;;;;4986451;28;19976;-91
2022/01/19 13:15:24;;;;;;;;;;;;;;;;;;4966924;28;19949;-89
2022/01/19 13:17:51;;;;;;;;;;;;;;;;;;4987184;28;20142;-91
2022/01/19 13:20:17;;;;;;;;;;;;;;;;;;4963666;28;19966;-88
2022/01/19 13:22:43;;;;;;;;;;;;;;;;;;4975046;28;19976;-89
2022/01/19 13:25:09;;;;;;;;;;;;;;;;;;4969823;28;19925;-88
2022/01/19 13:27:35;;;;;;;;;;;;;;;;;;4970173;28;19953;-89
2022/01/19 13:30:02;;;;;;;;;;;;;;;;;;4964396;28;20595;-88
2022/01/19 13:32:29;;;;;;;;;;;;;;;;;;4968963;28;19960;-88
2022/01/19 13:34:55;;;;;;;;;;;;;;;;;;4969999;28;19968;-89
2022/01/19 13:37:22;;;;;;;;;;;;;;;;;;4984528;28;19957;-88
2022/01/19 13:39:48;;;;;;;;;;;;;;;;;;4992861;28;19952;-88
2022/01/19 13:42:14;;;;;;;;;;;;;;;;;;4984968;28;19924;-83
2022/01/19 13:44:48;;;;;;;;;;;;;;;;;;4986449;28;19969;-85
2022/01/19 13:47:25;;;;;;;;;;;;;;;;;;4984499;28;19969;-87
2022/01/19 13:49:52;;;;;;;;;;;;;;;;;;4967623;28;19937;-82
2022/01/19 13:52:18;;;;;;;;;;;;;;;;;;4966959;28;19965;-82
2022/01/19 13:54:44;;;;;;;;;;;;;;;;;;4982610;28;19972;-81
2022/01/19 13:57:11;;;;;;;;;;;;;;;;;;4985954;28;19958;-83
2022/01/19 13:59:37;;;;;;;;;;;;;;;;;;4957759;28;20606;-83
2022/01/19 14:02:05;;;;;;;;;;;;;;;;;;4973377;28;19996;-83
2022/01/19 14:04:31;;;;;;;;;;;;;;;;;;4984863;28;19949;-84
2022/01/19 14:06:58;;;;;;;;;;;;;;;;;;4987641;28;20006;-84
2022/01/19 14:09:24;;;;;;;;;;;;;;;;;;4963320;28;20373;-86
2022/01/19 14:11:50;;;;;;;;;;;;;;;;;;4964752;28;20063;-83
2022/01/19 14:14:16;;;;;;;;;;;;;;;;;;4980542;28;20329;-85
2022/01/19 14:16:43;;;;;;;;;;;;;;;;;;4967527;28;19985;-83
2022/01/19 14:19:09;;;;;;;;;;;;;;;;;;4966866;28;19969;-84
2022/01/19 14:21:35;;;;;;;;;;;;;;;;;;4938784;28;19988;-84
2022/01/19 14:24:01;;;;;;;;;;;;;;;;;;4968059;28;19950;-83
2022/01/19 14:26:28;;;;;;;;;;;;;;;;;;4979701;28;19917;-84
2022/01/19 14:28:54;;;;;;;;;;;;;;;;;;4981778;28;19932;-83
2022/01/19 14:31:22;;;;;;;;;;;;;;;;;;4981311;28;19950;-83
2022/01/19 14:33:48;;;;;;;;;;;;;;;;;;4978514;28;19933;-83
2022/01/19 14:36:15;;;;;;;;;;;;;;;;;;4981116;28;20363;-83
2022/01/19 14:38:41;;;;;;;;;;;;;;;;;;4965560;28;19968;-84
2022/01/19 14:41:07;;;;;;;;;;;;;;;;;;4979766;28;20001;-84
2022/01/19 14:43:39;;;;;;;;;;;;;;;;;;4982933;28;20455;-85
2022/01/19 14:46:09;;;;;;;;;;;;;;;;;;4987231;28;19961;-87
2022/01/19 14:48:36;;;;;;;;;;;;;;;;;;4966273;28;19953;-86
2022/01/19 14:51:02;;;;;;;;;;;;;;;;;;4969866;28;20018;-89
2022/01/19 14:53:30;;;;;;;;;;;;;;;;;;4969344;28;19972;-86
2022/01/19 14:55:56;;;;;;;;;;;;;;;;;;4967541;28;20404;-87
2022/01/19 14:58:25;;;;;;;;;;;;;;;;;;4957107;28;19957;-85
2022/01/19 15:00:53;;;;;;;;;;;;;;;;;;4963790;28;20381;-85
2022/01/19 15:03:19;;;;;;;;;;;;;;;;;;4959016;28;20617;-81
2022/01/19 15:05:46;;;;;;;;;;;;;;;;;;4986147;28;19956;-83
2022/01/19 15:08:12;;;;;;;;;;;;;;;;;;4968313;28;20007;-85
2022/01/19 15:10:38;;;;;;;;;;;;;;;;;;4965568;28;19973;-81
2022/01/19 15:13:06;;;;;;;;;;;;;;;;;;4983288;28;20406;-81
2022/01/19 15:15:33;;;;;;;;;;;;;;;;;;4965950;28;20067;-84
2022/01/19 15:17:59;;;;;;;;;;;;;;;;;;4986731;28;19956;-85
2022/01/19 15:20:25;;;;;;;;;;;;;;;;;;4966104;28;20031;-85
2022/01/19 15:22:57;;;;;;;;;;;;;;;;;;4984228;28;20420;-84
2022/01/19 15:25:25;;;;;;;;;;;;;;;;;;4978264;28;19926;-84
2022/01/19 15:27:52;;;;;;;;;;;;;;;;;;4963153;28;19954;-82
2022/01/19 15:30:18;;;;;;;;;;;;;;;;;;4974135;28;19968;-82
2022/01/19 15:32:45;;;;;;;;;;;;;;;;;;4981332;28;20385;-82
2022/01/19 15:35:11;;;;;;;;;;;;;;;;;;4980801;28;19918;-82
2022/01/19 15:37:38;;;;;;;;;;;;;;;;;;4963369;28;19953;-82
2022/01/19 15:40:11;;;;;;;;;;;;;;;;;;4977423;28;19949;-82
2022/01/19 15:42:37;;;;;;;;;;;;;;;;;;4978976;28;19958;-82
2022/01/19 15:45:03;;;;;;;;;;;;;;;;;;4978828;28;19984;-83
2022/01/19 15:47:30;;;;;;;;;;;;;;;;;;4974888;28;20012;-83
2022/01/19 15:49:56;;;;;;;;;;;;;;;;;;4976160;28;19961;-83
2022/01/19 15:52:25;;;;;;;;;;;;;;;;;;4973806;28;19968;-80
2022/01/19 15:54:51;;;;;;;;;;;;;;;;;;4984355;28;19965;-82
2022/01/19 15:57:17;;;;;;;;;;;;;;;;;;4976595;28;19957;-82
2022/01/19 15:59:43;;;;;;;;;;;;;;;;;;4983617;28;20331;-81
2022/01/19 16:02:10;;;;;;;;;;;;;;;;;;4984371;28;19949;-81
2022/01/19 16:04:36;;;;;;;;;;;;;;;;;;4962287;28;20591;-82
2022/01/19 16:07:02;;;;;;;;;;;;;;;;;;4963037;28;19921;-83
2022/01/19 16:09:29;;;;;;;;;;;;;;;;;;4989847;28;19964;-82
2022/01/19 16:11:57;;;;;;;;;;;;;;;;;;4983983;28;20377;-83
2022/01/19 16:14:23;;;;;;;;;;;;;;;;;;4983236;28;19941;-82
2022/01/19 16:16:49;;;;;;;;;;;;;;;;;;4984521;28;19945;-82
2022/01/19 16:19:16;;;;;;;;;;;;;;;;;;4986723;28;19922;-81
2022/01/19 16:21:43;;;;;;;;;;;;;;;;;;4987074;28;19960;-83
2022/01/19 16:26:54;;;;;;;;;;;;;;;;;;4980827;28;20772;-85
2022/01/19 16:29:20;;;;;;;;;;;;;;;;;;4969490;28;19993;-84
2022/01/19 16:31:47;;;;;;;;;;;;;;;;;;4984683;28;19933;-84
2022/01/19 16:34:14;;;;;;;;;;;;;;;;;;4967711;28;19913;-83
2022/01/19 16:36:40;;;;;;;;;;;;;;;;;;4987149;28;20042;-84
2022/01/19 16:39:06;;;;;;;;;;;;;;;;;;4982267;28;20047;-83
2022/01/19 16:41:34;;;;;;;;;;;;;;;;;;4968404;28;20055;-84
2022/01/19 16:44:01;;;;;;;;;;;;;;;;;;4981380;28;20605;-84
2022/01/19 16:46:27;;;;;;;;;;;;;;;;;;4987697;28;19968;-84
2022/01/19 16:48:54;;;;;;;;;;;;;;;;;;4984307;28;19961;-84
2022/01/19 16:51:20;;;;;;;;;;;;;;;;;;4963117;28;19956;-84
2022/01/19 16:53:46;;;;;;;;;;;;;;;;;;4981868;28;19961;-84
2022/01/19 16:56:13;;;;;;;;;;;;;;;;;;4981817;28;20003;-84
2022/01/19 16:58:39;;;;;;;;;;;;;;;;;;4978825;28;20333;-83
2022/01/19 17:01:05;;;;;;;;;;;;;;;;;;4966923;28;20691;-84
2022/01/19 17:03:32;;;;;;;;;;;;;;;;;;4978991;28;20005;-84
2022/01/19 17:06:00;;;;;;;;;;;;;;;;;;4983719;28;20382;-84
2022/01/19 17:08:26;;;;;;;;;;;;;;;;;;4999606;28;20495;-84
2022/01/19 17:10:55;;;;;;;;;;;;;;;;;;4984035;28;19961;-84
2022/01/19 17:18:38;;;;;;;;;;;;;;;;;;4980105;28;19972;-84
2022/01/19 17:21:04;;;;;;;;;;;;;;;;;;4980838;28;19970;-84
2022/01/19 17:23:32;;;;;;;;;;;;;;;;;;4992566;28;19950;-84
2022/01/19 17:25:58;;;;;;;;;;;;;;;;;;4968971;28;19941;-83
2022/01/19 19:35:42;;;;;;;;;;;;;;;;;;5998633;23;1980946;-81
2022/01/19 19:38:09;;;;;;;;;;;;;;;;;;6126078;23;20308;-81
2022/01/19 19:40:40;;;;;;;;;;;;;;;;;;6125037;23;19916;-81
2022/01/19 19:43:07;;;;;;;;;;;;;;;;;;6112408;23;19909;-82
2022/01/19 19:45:33;;;;;;;;;;;;;;;;;;6124628;23;19909;-82
2022/01/19 19:47:59;;;;;;;;;;;;;;;;;;6126080;23;20257;-81
2022/01/19 19:50:25;;;;;;;;;;;;;;;;;;6123152;23;19917;-82
2022/01/19 19:52:53;;;;;;;;;;;;;;;;;;6124180;23;20313;-81
2022/01/19 19:55:19;;;;;;;;;;;;;;;;;;6123305;23;19909;-82
2022/01/19 19:57:45;;;;;;;;;;;;;;;;;;6124407;23;19920;-82
2022/01/19 20:00:12;;;;;;;;;;;;;;;;;;6125830;23;19909;-81
2022/01/19 20:02:38;;;;;;;;;;;;;;;;;;6125268;23;19909;-82
2022/01/19 20:05:04;;;;;;;;;;;;;;;;;;6125381;23;20337;-81
2022/01/19 20:07:30;;;;;;;;;;;;;;;;;;6125246;23;19925;-82
2022/01/19 20:09:56;;;;;;;;;;;;;;;;;;6124345;23;19913;-82
2022/01/19 20:12:23;;;;;;;;;;;;;;;;;;6124375;23;19913;-83
2022/01/19 20:14:49;;;;;;;;;;;;;;;;;;6125690;23;19913;-82
2022/01/19 20:17:16;;;;;;;;;;;;;;;;;;6123949;23;19913;-84
2022/01/19 20:19:42;;;;;;;;;;;;;;;;;;6122486;23;20821;-83
2022/01/19 20:22:08;;;;;;;;;;;;;;;;;;6122159;23;19924;-86
2022/01/19 20:24:35;;;;;;;;;;;;;;;;;;6117705;23;19909;-83
2022/01/19 20:27:03;;;;;;;;;;;;;;;;;;6116275;23;19909;-84
2022/01/19 20:29:29;;;;;;;;;;;;;;;;;;6118019;23;19909;-90
2022/01/19 20:31:56;;;;;;;;;;;;;;;;;;6122451;23;19928;-93
2022/01/19 20:34:22;;;;;;;;;;;;;;;;;;6123408;23;19921;-93
2022/01/19 20:36:48;;;;;;;;;;;;;;;;;;6124408;23;19917;-93
2022/01/19 20:39:16;;;;;;;;;;;;;;;;;;6080346;23;19956;-94
2022/01/19 20:41:42;;;;;;;;;;;;;;;;;;6074447;23;19996;-94
2022/01/19 20:44:08;;;;;;;;;;;;;;;;;;6049314;23;20400;-92
2022/01/19 20:46:35;;;;;;;;;;;;;;;;;;6068838;23;19912;-91
2022/01/19 20:49:01;;;;;;;;;;;;;;;;;;6122236;23;19920;-91
2022/01/19 20:51:27;;;;;;;;;;;;;;;;;;6096346;23;19968;-92
2022/01/19 20:53:53;;;;;;;;;;;;;;;;;;6089137;23;19999;-94
2022/01/19 20:56:20;;;;;;;;;;;;;;;;;;6071196;23;19960;-90
2022/01/19 20:58:49;;;;;;;;;;;;;;;;;;6100406;23;19909;-90
2022/01/19 21:01:15;;;;;;;;;;;;;;;;;;6097703;23;20329;-80
2022/01/19 21:03:42;;;;;;;;;;;;;;;;;;6092122;23;19920;-79
2022/01/19 21:06:09;;;;;;;;;;;;;;;;;;6120221;23;20518;-82